Deerfield, Ohio
Current Conditions -  °F | °C
As of 5:21 AM on Saturday 22 Nov 2014 (Local Time) from KPOV Reporting Station
Clear Clear  
Wind Chill: 16°   Ceiling: Unl
Heat Index: 22°   Visibility: 10mi
Dew Point:   Wind: 5mph
Humidity: 52%   Direction: 170°S
Pressure: 30.27"   Gusts: NA
Location:  41.02°N, 81.05°W
Report Text: KPOV 221021Z AUTO 17004KT 10SM CLR M06/M14 A3027 RMK AO2 T10561140
Loading
Personal Weather Stations






























Interactive Weather Map New forecast layout! Learn more

10-Day Weather Forecast

Advertisements
Track Severe Weather on mobile